Time;durP1;ratioP1;P1;durP2;ratioP2;P2;SDS_P1;SDS_P2;PMS_P1;PMS_P2;Temp;Humidity;BMP_temperature;BMP_pressure;BME280_temperature;BME280_humidity;BME280_pressure;Samples;Min_cycle;Max_cycle;Signal;HPM_P1;HPM_P2
2021/05/17 00:02:16;;;;;;;12.82;10.27;;;;;;;12.40;84.55;93206.47;4876679;29;20181;-89
2021/05/17 00:04:44;;;;;;;18.30;10.75;;;;;;;12.08;84.36;93175.16;4845004;29;20490;-92
2021/05/17 00:07:26;;;;;;;13.38;10.32;;;;;;;12.04;84.04;93161.78;4801436;29;20048;-91
2021/05/17 00:09:52;;;;;;;16.33;11.15;;;;;;;12.38;84.19;93227.19;4807805;29;20049;-91
2021/05/17 00:12:24;;;;;;;11.02;9.68;;;;;;;12.21;83.99;93187.47;4806449;29;20050;-92
2021/05/17 00:14:50;;;;;;;17.67;13.10;;;;;;;12.41;84.18;93229.22;4800730;29;20124;-91
2021/05/17 00:17:45;;;;;;;16.60;13.35;;;;;;;12.05;84.90;93186.38;4838777;29;20029;-91
2021/05/17 00:20:26;;;;;;;;;;;;;;;;;;;;;
2021/05/17 00:23:02;;;;;;;19.00;12.07;;;;;;;12.01;84.26;93185.47;4823511;29;20121;-91
2021/05/17 00:25:49;;;;;;;22.10;14.10;;;;;;;12.31;84.45;93236.72;4855734;29;20064;-92
2021/05/17 00:28:29;;;;;;;15.55;12.65;;;;;;;11.97;84.33;93189.81;4852257;29;20147;-93
2021/05/17 00:30:56;;;;;;;16.23;13.27;;;;;;;11.94;84.06;93180.63;4851999;29;20052;-91
2021/05/17 00:33:27;;;;;;;19.77;14.05;;;;;;;11.95;84.76;93176.09;4868120;29;20075;-92
2021/05/17 00:36:04;;;;;;;15.25;13.18;;;;;;;12.34;85.41;93239.50;4830425;29;20044;-93
2021/05/17 00:38:39;;;;;;;20.98;13.73;;;;;;;12.13;85.14;93180.31;4873120;29;20614;-92
2021/05/17 00:41:42;;;;;;;17.23;14.10;;;;;;;12.05;85.46;93179.22;4769563;29;20114;-92
2021/05/17 00:44:56;;;;;;;21.63;16.77;;;;;;;12.52;85.45;93222.50;4832713;29;20073;-96
2021/05/17 00:51:36;;;;;;;;;;;;;;;;;;;;;
2021/05/17 00:54:47;;;;;;;25.95;20.00;;;;;;;12.08;87.36;93180.47;4764073;29;20043;-92
2021/05/17 00:57:58;;;;;;;26.55;19.58;;;;;;;12.40;85.93;93209.13;4787247;29;20045;-93
2021/05/17 01:00:42;;;;;;;23.13;17.92;;;;;;;12.34;86.12;93234.22;4745906;29;20845;-92
2021/05/17 01:03:20;;;;;;;24.58;18.58;;;;;;;12.13;85.19;93182.94;4759829;29;20934;-92
2021/05/17 01:06:33;;;;;;;21.60;16.02;;;;;;;12.38;85.10;93221.91;4807017;29;20072;-94
2021/05/17 01:09:03;;;;;;;19.80;15.70;;;;;;;12.23;85.14;93211.78;4809804;23;20524;-92
2021/05/17 01:16:55;;;;;;;19.45;16.75;;;;;;;12.16;85.66;93214.13;4888312;23;20052;-91
2021/05/17 01:20:00;;;;;;;18.17;16.27;;;;;;;12.22;85.36;93218.16;4872570;29;20267;-92
2021/05/17 01:22:34;;;;;;;17.35;14.85;;;;;;;12.18;85.13;93206.63;4851520;29;20055;-89
2021/05/17 01:25:27;;;;;;;24.15;17.75;;;;;;;12.15;84.92;93210.69;4884919;29;20071;-92
2021/05/17 01:28:06;;;;;;;19.80;17.23;;;;;;;12.16;84.59;93227.38;4811315;29;20388;-91
2021/05/17 01:30:45;;;;;;;19.90;17.38;;;;;;;11.98;85.02;93218.63;4868433;23;20049;-90
2021/05/17 01:33:34;;;;;;;26.00;19.08;;;;;;;12.08;85.27;93220.19;4834853;29;20077;-93
2021/05/17 01:36:36;;;;;;;33.10;18.50;;;;;;;12.15;85.71;93223.16;4880948;29;20075;-91
2021/05/17 01:39:08;;;;;;;20.70;17.02;;;;;;;12.10;85.54;93210.06;4868430;29;20063;-91
2021/05/17 01:41:54;;;;;;;;;;;;;;;;;;;;;
2021/05/17 01:48:24;;;;;;;19.02;16.25;;;;;;;12.43;84.70;93229.69;4784334;24;20063;-91
2021/05/17 01:51:18;;;;;;;24.13;19.08;;;;;;;12.34;85.28;93226.28;4859254;29;20055;-91
2021/05/17 01:53:58;;;;;;;21.67;16.65;;;;;;;12.09;84.76;93176.72;4867159;29;20483;-90
2021/05/17 01:56:55;;;;;;;19.17;17.13;;;;;;;12.26;85.22;93227.06;4869213;29;20039;-91
2021/05/17 01:59:41;;;;;;;34.33;21.40;;;;;;;11.99;85.43;93200.88;4806480;29;20042;-92
2021/05/17 02:02:22;;;;;;;25.77;19.55;;;;;;;12.00;84.67;93181.25;4842626;29;20044;-92
2021/05/17 02:05:22;;;;;;;;;;;;;;;;;;;;;
2021/05/17 02:08:18;;;;;;;23.63;17.48;;;;;;;12.22;84.39;93215.50;4890232;29;20100;-91
2021/05/17 02:11:27;;;;;;;20.92;16.67;;;;;;;12.00;84.25;93176.72;4820094;29;20048;-94
2021/05/17 02:14:38;;;;;;;19.25;15.60;;;;;;;12.03;84.46;93197.28;4903323;29;20043;-93
2021/05/17 02:18:14;;;;;;;35.25;22.85;;;;;;;11.96;84.12;93186.41;4846619;23;20112;-92
2021/05/17 02:21:28;;;;;;;40.75;22.25;;;;;;;11.57;84.81;93166.09;4884630;29;20134;-92
2021/05/17 02:24:25;;;;;;;30.48;21.98;;;;;;;11.85;84.22;93195.72;4838899;29;20044;-93
2021/05/17 02:27:44;;;;;;;57.75;29.63;;;;;;;11.86;84.35;93192.00;4858160;24;20392;-93
2021/05/17 02:30:29;;;;;;;30.23;20.65;;;;;;;11.51;84.90;93164.66;4849625;29;20045;-95
2021/05/17 02:36:28;;;;;;;30.13;20.05;;;;;;;11.45;84.79;93163.25;4883905;29;20409;-93
2021/05/17 02:39:08;;;;;;;;;;;;;;;;;;;;;
2021/05/17 02:42:23;;;;;;;25.02;15.82;;;;;;;11.48;84.37;93151.28;4902695;29;20039;-93
2021/05/17 02:46:15;;;;;;;22.33;17.17;;;;;;;11.45;84.58;93173.84;4885267;29;20134;-95
2021/05/17 02:48:17;;;;;;;29.65;14.25;;;;;;;11.40;84.45;93166.03;4888862;29;20047;-94
2021/05/17 02:51:02;;;;;;;14.82;12.70;;;;;;;11.39;85.33;93171.63;4902361;29;20039;-94
2021/05/17 02:54:23;;;;;;;16.85;13.10;;;;;;;11.62;85.63;93213.56;4825743;29;20144;-93
2021/05/17 02:57:08;;;;;;;16.80;13.82;;;;;;;11.62;86.36;93237.41;4914733;29;20127;-93
2021/05/17 02:59:52;;;;;;;23.17;17.60;;;;;;;11.59;86.73;93232.69;4916595;29;20035;-91
2021/05/17 03:02:35;;;;;;;24.08;16.40;;;;;;;11.39;86.70;93179.56;4818485;28;20052;-90
2021/05/17 03:05:12;;;;;;;17.08;14.82;;;;;;;11.73;85.93;93201.63;4826123;29;20035;-91
2021/05/17 03:07:47;;;;;;;23.80;15.73;;;;;;;12.04;85.51;93235.13;4846104;29;20683;-92
2021/05/17 03:10:53;;;;;;;;;;;;;;;;;;;;;
2021/05/17 03:13:35;;;;;;;17.20;13.15;;;;;;;12.17;85.72;93236.09;4833803;29;20038;-92
2021/05/17 03:16:04;;;;;;;14.65;13.15;;;;;;;11.88;86.12;93196.97;4822460;29;20059;-92
2021/05/17 03:18:33;;;;;;;19.48;12.90;;;;;;;12.34;86.12;93252.75;4847075;29;20114;-93
2021/05/17 03:21:02;;;;;;;20.50;13.68;;;;;;;12.05;86.40;93195.13;4854481;29;20811;-91
2021/05/17 03:23:54;;;;;;;20.42;14.48;;;;;;;12.59;86.17;93257.28;4875933;29;20044;-92
2021/05/17 03:26:30;;;;;;;21.23;14.48;;;;;;;12.72;85.62;93220.28;4836286;29;20635;-92
2021/05/17 03:29:23;;;;;;;23.80;15.90;;;;;;;13.22;84.16;93252.31;4862379;29;20072;-92
2021/05/17 03:31:51;;;;;;;18.70;13.82;;;;;;;12.94;83.27;93188.28;4865027;29;20036;-93
2021/05/17 03:34:23;;;;;;;28.40;14.27;;;;;;;13.34;82.33;93247.16;4859505;29;20188;-92
2021/05/17 03:36:48;;;;;;;21.00;14.13;;;;;;;13.23;81.90;93230.78;4850028;29;20116;-92
2021/05/17 03:39:29;;;;;;;21.65;14.60;;;;;;;13.08;81.39;93225.97;4845797;29;20548;-92
2021/05/17 03:42:10;;;;;;;36.45;20.17;;;;;;;13.12;80.39;93213.66;4887754;29;20540;-92
2021/05/17 03:44:38;;;;;;;23.73;13.90;;;;;;;13.47;80.52;93245.38;4902550;29;20427;-92
2021/05/17 03:47:12;;;;;;;21.90;16.10;;;;;;;13.52;80.43;93243.31;4845041;29;20150;-94
2021/05/17 03:50:02;;;;;;;18.42;12.57;;;;;;;13.45;80.15;93219.91;4847504;29;20137;-92
2021/05/17 03:52:28;;;;;;;45.30;25.48;;;;;;;13.54;79.95;93222.53;4820236;29;20048;-92
2021/05/17 03:54:59;;;;;;;48.22;28.00;;;;;;;14.07;78.81;93268.94;4865938;29;20044;-92
2021/05/17 03:57:25;;;;;;;24.92;17.60;;;;;;;13.96;78.68;93241.19;4888471;29;20364;-93
2021/05/17 03:59:53;;;;;;;31.80;20.50;;;;;;;14.23;78.92;93246.78;4878059;29;20040;-93
2021/05/17 04:02:28;;;;;;;27.13;16.95;;;;;;;14.46;78.60;93227.91;4911988;29;20743;-93
2021/05/17 04:13:22;;;;;;;26.05;16.17;;;;;;;17.47;68.02;93264.53;4908404;28;20051;-92
2021/05/17 04:15:59;;;;;;;33.35;19.48;;;;;;;17.46;66.76;93228.22;4871217;29;20043;-93
2021/05/17 04:18:41;;;;;;;37.50;19.27;;;;;;;17.55;64.69;93191.44;4902641;29;20206;-94
2021/05/17 04:21:23;;;;;;;46.53;20.85;;;;;;;17.58;64.36;93209.47;4903652;29;20069;-93
2021/05/17 04:24:10;;;;;;;37.70;24.90;;;;;;;17.45;65.46;93224.00;4866047;29;20023;-94
2021/05/17 04:26:40;;;;;;;46.53;23.73;;;;;;;17.63;64.51;93219.91;4911357;29;20096;-93
2021/05/17 04:29:06;;;;;;;50.30;23.35;;;;;;;17.39;66.28;93257.47;4886091;29;20059;-94
2021/05/17 04:31:38;;;;;;;32.38;21.75;;;;;;;17.33;65.60;93200.84;4886511;29;20134;-95
2021/05/17 04:34:03;;;;;;;186.27;27.33;;;;;;;17.48;65.92;93201.97;4880386;29;20142;-94
2021/05/17 04:36:32;;;;;;;28.75;19.50;;;;;;;18.10;64.00;93238.56;4916516;28;20123;-93
2021/05/17 04:38:59;;;;;;;28.85;19.35;;;;;;;18.32;62.60;93231.78;4907357;29;20035;-89
2021/05/17 04:41:28;;;;;;;39.38;20.55;;;;;;;17.91;63.50;93217.13;4922138;29;20561;-94
2021/05/17 04:44:02;;;;;;;44.08;21.92;;;;;;;17.77;63.94;93198.09;4876422;29;20052;-94
2021/05/17 04:46:35;;;;;;;34.08;20.83;;;;;;;18.20;62.76;93181.06;4845259;29;20051;-92
2021/05/17 04:49:00;;;;;;;33.85;22.00;;;;;;;18.51;62.43;93237.16;4891201;29;20615;-93
2021/05/17 04:51:26;;;;;;;35.58;20.08;;;;;;;18.70;61.25;93196.25;4880208;29;20047;-94
2021/05/17 04:54:01;;;;;;;34.08;19.65;;;;;;;19.21;60.71;93212.09;4911816;29;20924;-90
2021/05/17 04:56:29;;;;;;;30.15;18.10;;;;;;;18.95;58.91;93167.28;4916619;29;20477;-90
2021/05/17 04:58:55;;;;;;;19.35;16.80;;;;;;;19.59;58.38;93200.53;4914144;28;20050;-91
2021/05/17 05:01:20;;;;;;;28.52;15.57;;;;;;;20.48;55.21;93224.06;4923247;29;20036;-91
2021/05/17 05:03:48;;;;;;;24.55;17.95;;;;;;;20.28;54.40;93208.06;4882412;29;20048;-91
2021/05/17 05:06:17;;;;;;;25.98;17.45;;;;;;;20.35;54.58;93195.91;4881006;29;20055;-91
2021/05/17 05:08:48;;;;;;;23.38;18.42;;;;;;;20.85;54.45;93240.28;4892508;29;20676;-91
2021/05/17 05:11:13;;;;;;;23.88;19.05;;;;;;;21.83;53.17;93240.53;4923225;29;20039;-89
2021/05/17 05:13:44;;;;;;;20.45;17.17;;;;;;;21.81;50.96;93232.06;4908506;29;20046;-90
2021/05/17 05:16:10;;;;;;;21.00;18.17;;;;;;;21.75;50.94;93209.34;4902721;29;20044;-91
2021/05/17 05:18:35;;;;;;;19.75;16.13;;;;;;;22.10;49.28;93221.53;4918535;28;20036;-90
2021/05/17 05:21:04;;;;;;;19.70;17.58;;;;;;;21.46;50.65;93229.81;4887114;29;20053;-91
2021/05/17 05:23:34;;;;;;;24.75;19.67;;;;;;;21.76;50.97;93235.09;4915984;29;20776;-90
2021/05/17 05:28:59;;;;;;;23.52;19.58;;;;;;;21.02;51.84;93240.47;4923465;29;20570;-91
2021/05/17 05:33:56;;;;;;;22.83;19.10;;;;;;;21.07;51.78;93229.41;4911301;29;20135;-90
2021/05/17 05:36:22;;;;;;;29.67;16.75;;;;;;;20.79;52.11;93226.41;4922370;29;20564;-89
2021/05/17 05:38:52;;;;;;;20.63;17.67;;;;;;;20.72;52.33;93247.81;4917081;29;20491;-90
2021/05/17 05:41:18;;;;;;;19.70;15.88;;;;;;;21.35;51.83;93228.19;4907095;29;20964;-91
2021/05/17 05:43:43;;;;;;;19.10;16.75;;;;;;;21.85;49.85;93208.63;4922176;29;20036;-90
2021/05/17 05:46:09;;;;;;;20.73;17.50;;;;;;;22.04;49.34;93194.97;4922904;29;20070;-90
2021/05/17 05:48:47;;;;;;;23.05;17.60;;;;;;;22.30;48.96;93212.84;4912300;29;20066;-89
2021/05/17 05:51:18;;;;;;;19.92;17.75;;;;;;;22.85;47.29;93215.44;4922608;29;20035;-91
2021/05/17 05:53:49;;;;;;;19.63;17.55;;;;;;;23.30;46.27;93209.44;4924037;29;20024;-92
2021/05/17 05:56:18;;;;;;;18.15;15.73;;;;;;;24.39;44.95;93210.63;4916622;29;20035;-93
2021/05/17 05:58:48;;;;;;;16.33;14.55;;;;;;;25.04;42.64;93182.25;4894152;29;20037;-93
2021/05/17 06:01:14;;;;;;;19.52;16.85;;;;;;;25.33;41.67;93209.91;4922111;29;20516;-90
2021/05/17 06:03:40;;;;;;;17.67;14.90;;;;;;;24.64;43.69;93198.97;4920506;29;20500;-92
2021/05/17 06:06:08;;;;;;;19.58;16.90;;;;;;;24.35;44.17;93193.66;4907068;29;20048;-91
2021/05/17 06:08:34;;;;;;;19.63;17.73;;;;;;;24.13;44.14;93194.84;4921888;29;20050;-91
2021/05/17 06:11:01;;;;;;;21.55;18.27;;;;;;;23.42;45.51;93202.88;4912546;29;20036;-85
2021/05/17 06:13:27;;;;;;;26.05;19.75;;;;;;;23.00;47.02;93202.78;4904924;29;20040;-92
2021/05/17 06:15:55;;;;;;;20.77;18.48;;;;;;;22.77;48.96;93171.53;4884376;29;20052;-91
2021/05/17 06:18:21;;;;;;;21.15;18.30;;;;;;;24.08;45.75;93173.66;4900134;29;20043;-91
2021/05/17 06:20:48;;;;;;;20.85;18.77;;;;;;;24.14;44.42;93197.13;4919396;29;20020;-93
2021/05/17 06:23:15;;;;;;;21.85;18.92;;;;;;;24.38;44.32;93160.50;4917312;29;20039;-92
2021/05/17 06:25:43;;;;;;;19.35;17.48;;;;;;;25.12;42.58;93139.75;4917811;29;20039;-94
2021/05/17 06:28:10;;;;;;;18.77;16.73;;;;;;;26.32;40.90;93160.47;4922295;29;20405;-91
2021/05/17 06:30:54;;;;;;;21.83;17.50;;;;;;;27.04;39.53;93159.28;4906186;29;20031;-93
2021/05/17 06:33:22;;;;;;;20.80;18.23;;;;;;;27.70;37.85;93185.91;4900100;29;20044;-92
2021/05/17 06:35:54;;;;;;;18.95;16.95;;;;;;;28.39;36.14;93163.41;4903153;29;20027;-93
2021/05/17 06:38:21;;;;;;;19.25;17.27;;;;;;;27.94;36.82;93176.59;4922767;29;20039;-93
2021/05/17 06:40:52;;;;;;;21.33;19.10;;;;;;;27.42;36.88;93167.28;4908083;29;20047;-95
2021/05/17 06:43:18;;;;;;;21.40;18.98;;;;;;;27.25;38.57;93190.00;4896110;29;20107;-91
2021/05/17 06:45:44;;;;;;;23.33;18.60;;;;;;;26.52;40.12;93196.66;4919419;29;20031;-95
2021/05/17 06:48:13;;;;;;;23.75;19.92;;;;;;;25.85;40.70;93151.22;4920199;29;20979;-91
2021/05/17 06:50:39;;;;;;;25.70;21.02;;;;;;;25.45;41.87;93183.19;4925588;29;20480;-92
2021/05/17 06:53:05;;;;;;;25.08;20.70;;;;;;;25.11;43.05;93184.94;4922789;29;20566;-88
2021/05/17 07:01:31;;;;;;;27.80;18.60;;;;;;;27.33;38.55;93158.88;4889017;29;20064;-93
2021/05/17 07:03:57;;;;;;;22.48;17.65;;;;;;;29.05;35.87;93156.34;4891184;28;20087;-95
2021/05/17 07:06:27;;;;;;;16.45;14.63;;;;;;;28.98;35.18;93156.50;4908066;29;20123;-91
2021/05/17 07:11:46;;;;;;;32.03;28.00;;;;;;;31.51;32.62;93134.16;4922105;29;20056;-91
2021/05/17 07:14:11;;;;;;;17.02;15.05;;;;;;;32.80;29.76;93143.19;4898111;29;20040;-87
2021/05/17 07:16:37;;;;;;;14.95;13.25;;;;;;;33.66;29.32;93157.25;4922680;29;20061;-89
2021/05/17 07:19:28;;;;;;;18.70;13.95;;;;;;;34.37;28.16;93166.19;4906130;29;20067;-93
2021/05/17 07:24:37;;;;;;;16.90;11.88;;;;;;;32.54;30.03;93174.59;4908987;29;20122;-88
2021/05/17 07:27:03;;;;;;;14.95;13.50;;;;;;;31.94;31.72;93177.31;4884549;29;20059;-91
2021/05/17 07:29:39;;;;;;;15.80;13.70;;;;;;;31.29;31.92;93180.41;4922442;29;20071;-93
2021/05/17 07:32:08;;;;;;;16.10;13.63;;;;;;;30.46;32.85;93179.56;4899280;29;20044;-91
2021/05/17 07:34:36;;;;;;;18.67;13.43;;;;;;;30.25;33.44;93166.50;4904864;29;20160;-93
2021/05/17 07:37:05;;;;;;;14.15;12.75;;;;;;;29.63;33.26;93141.09;4915494;29;20039;-93
2021/05/17 07:39:31;;;;;;;14.63;11.75;;;;;;;29.56;33.82;93169.25;4922334;29;20047;-93
2021/05/17 07:41:56;;;;;;;15.98;13.55;;;;;;;29.12;34.77;93151.53;4923248;29;20024;-95
2021/05/17 07:54:37;;;;;;;17.25;13.15;;;;;;;27.04;38.26;93112.41;4923470;23;20079;-94
2021/05/17 07:57:09;;;;;;;15.15;12.73;;;;;;;28.23;36.40;93127.25;4900813;29;20135;-89
2021/05/17 07:59:35;;;;;;;18.42;13.48;;;;;;;27.83;36.81;93121.69;4923334;29;20298;-93
2021/05/17 08:02:01;;;;;;;18.65;13.88;;;;;;;27.86;37.90;93156.16;4911510;29;20090;-84
2021/05/17 08:04:26;;;;;;;14.73;12.10;;;;;;;27.66;37.88;93136.31;4919229;29;20058;-93
2021/05/17 08:06:52;;;;;;;14.77;11.65;;;;;;;26.63;39.17;93145.06;4919210;29;20095;-94
2021/05/17 08:09:19;;;;;;;17.38;15.50;;;;;;;25.43;41.58;93117.88;4908675;29;20084;-92
2021/05/17 08:11:46;;;;;;;20.13;15.07;;;;;;;25.09;42.71;93138.59;4917464;29;20031;-92
2021/05/17 08:14:11;;;;;;;28.42;16.35;;;;;;;24.59;43.28;93117.19;4919791;29;20078;-92
2021/05/17 08:16:37;;;;;;;26.67;17.75;;;;;;;24.16;45.84;93137.38;4874987;29;20615;-93
2021/05/17 08:19:03;;;;;;;32.55;18.67;;;;;;;23.83;46.25;93135.88;4903359;29;20043;-92
2021/05/17 08:21:29;;;;;;;25.92;18.10;;;;;;;22.97;47.90;93122.72;4917757;29;20050;-88
2021/05/17 08:23:56;;;;;;;27.00;18.30;;;;;;;23.10;47.34;93126.59;4919875;29;20027;-92
2021/05/17 08:26:23;;;;;;;29.38;17.27;;;;;;;23.06;48.86;93147.38;4925073;29;20031;-94
2021/05/17 08:28:48;;;;;;;26.25;18.42;;;;;;;22.70;49.54;93163.44;4901438;29;20743;-92
2021/05/17 08:31:17;;;;;;;20.40;17.17;;;;;;;22.44;49.66;93172.53;4922533;29;20050;-93
2021/05/17 08:33:43;;;;;;;20.92;18.48;;;;;;;22.43;51.34;93181.75;4889111;29;20044;-95
2021/05/17 08:36:12;;;;;;;22.73;17.80;;;;;;;21.76;52.44;93143.66;4866467;29;20597;-93
2021/05/17 08:38:38;;;;;;;23.85;19.08;;;;;;;21.14;53.67;93134.72;4882230;29;20054;-90
2021/05/17 08:41:05;;;;;;;22.42;17.90;;;;;;;21.80;53.31;93165.19;4920358;29;20094;-86
2021/05/17 08:43:30;;;;;;;24.88;18.77;;;;;;;22.17;53.41;93189.31;4903502;29;20051;-90
2021/05/17 08:45:56;;;;;;;23.65;17.02;;;;;;;22.40;53.18;93152.13;4897916;29;20044;-93
2021/05/17 08:48:24;;;;;;;27.00;18.30;;;;;;;22.76;52.53;93172.69;4912720;29;20046;-93
2021/05/17 08:50:50;;;;;;;27.95;19.73;;;;;;;22.66;52.47;93169.94;4911082;29;20386;-93
2021/05/17 08:53:15;;;;;;;26.20;18.52;;;;;;;22.87;51.17;93170.78;4903049;29;20062;-91
2021/05/17 08:55:52;;;;;;;27.75;16.50;;;;;;;23.17;49.73;93156.25;4921809;29;20082;-92
2021/05/17 08:58:21;;;;;;;21.83;18.00;;;;;;;23.27;51.99;93126.59;4918274;29;20086;-93
2021/05/17 09:00:47;;;;;;;23.30;18.23;;;;;;;23.98;50.16;93153.59;4883778;29;20071;-93
2021/05/17 09:03:13;;;;;;;27.48;19.45;;;;;;;23.92;51.86;93136.25;4908448;29;20048;-91
2021/05/17 09:05:38;;;;;;;16.08;13.73;;;;;;;24.58;49.17;93156.16;4924466;29;20034;-90
2021/05/17 09:08:05;;;;;;;22.30;15.68;;;;;;;24.88;46.87;93154.91;4900995;29;20051;-94
2021/05/17 09:10:38;;;;;;;22.88;17.23;;;;;;;24.58;49.09;93168.94;4920103;29;20710;-90
2021/05/17 09:13:11;;;;;;;25.38;19.33;;;;;;;24.37;48.82;93158.97;4900063;29;20224;-90
2021/05/17 09:15:46;;;;;;;24.80;19.10;;;;;;;23.79;49.79;93156.72;4903892;29;20044;-91
2021/05/17 09:18:22;;;;;;;20.02;17.45;;;;;;;23.23;50.09;93152.78;4920834;29;20698;-96
2021/05/17 09:20:49;;;;;;;23.27;17.48;;;;;;;22.64;51.47;93166.84;4907985;29;20492;-93
2021/05/17 09:23:31;;;;;;;23.17;18.70;;;;;;;22.16;53.03;93142.78;4922905;29;20107;-91
2021/05/17 09:26:14;;;;;;;22.88;18.98;;;;;;;21.78;56.29;93146.75;4909703;29;20059;-92
2021/05/17 09:28:45;;;;;;;23.27;19.77;;;;;;;21.41;57.23;93151.44;4902760;29;20046;-89
2021/05/17 09:31:16;;;;;;;27.88;20.27;;;;;;;21.45;59.96;93149.56;4897726;29;20050;-87
2021/05/17 09:33:51;;;;;;;24.23;19.25;;;;;;;20.91;61.71;93123.34;4921286;29;20047;-89
2021/05/17 09:36:27;;;;;;;23.08;20.67;;;;;;;20.27;64.26;93117.22;4908958;29;20071;-88
2021/05/17 09:38:58;;;;;;;22.92;19.83;;;;;;;20.42;65.11;93147.72;4897731;29;20071;-91
2021/05/17 09:41:36;;;;;;;25.58;19.58;;;;;;;20.04;66.47;93130.72;4898597;29;20039;-89
2021/05/17 09:44:02;;;;;;;25.45;20.38;;;;;;;20.29;65.07;93137.19;4915901;29;20055;-92
2021/05/17 09:46:28;;;;;;;26.42;20.05;;;;;;;20.26;64.95;93140.59;4916236;29;20040;-91
2021/05/17 09:48:54;;;;;;;24.55;18.98;;;;;;;20.19;64.72;93137.81;4905198;29;20458;-91
2021/05/17 09:51:33;;;;;;;22.15;17.30;;;;;;;19.83;63.50;93095.59;4903516;29;20047;-95
2021/05/17 09:53:58;;;;;;;24.27;18.20;;;;;;;19.69;65.50;93096.19;4880247;29;28433;-90
2021/05/17 09:56:24;;;;;;;27.80;21.33;;;;;;;19.78;67.06;93093.22;4893995;29;20353;-86
2021/05/17 09:59:02;;;;;;;33.05;22.90;;;;;;;19.55;69.17;93089.84;4887333;29;20040;-90
2021/05/17 10:01:31;;;;;;;36.38;20.42;;;;;;;19.66;68.60;93101.47;4879676;29;20044;-88
2021/05/17 10:04:05;;;;;;;25.10;19.30;;;;;;;19.61;68.81;93125.91;4892178;29;20567;-90
2021/05/17 10:06:31;;;;;;;22.57;17.50;;;;;;;19.64;67.93;93101.06;4874894;29;20160;-90
2021/05/17 10:08:59;;;;;;;21.23;17.08;;;;;;;19.71;67.40;93126.06;4872965;29;20623;-89
2021/05/17 10:11:26;;;;;;;23.95;17.17;;;;;;;19.25;69.94;93109.28;4892687;29;20247;-91
2021/05/17 10:13:56;;;;;;;21.75;17.50;;;;;;;19.54;68.26;93094.44;4888732;29;20459;-90
2021/05/17 10:16:23;;;;;;;21.95;17.90;;;;;;;19.60;67.27;93097.53;4866849;29;20571;-90
2021/05/17 10:18:50;;;;;;;24.73;17.35;;;;;;;19.26;67.58;93099.31;4892006;29;20489;-92
2021/05/17 10:21:18;;;;;;;20.67;18.38;;;;;;;18.75;68.52;93086.25;4881821;29;20052;-92
2021/05/17 10:23:47;;;;;;;23.55;18.02;;;;;;;18.85;69.36;93082.19;4893299;29;20115;-91
2021/05/17 10:26:22;;;;;;;27.90;18.48;;;;;;;19.51;67.80;93113.09;4892980;29;20030;-92
2021/05/17 10:28:52;;;;;;;27.48;17.73;;;;;;;19.80;65.12;93109.72;4891617;29;20040;-89
2021/05/17 10:31:19;;;;;;;22.40;16.55;;;;;;;19.93;64.48;93129.03;4875150;29;20127;-94
2021/05/17 10:34:17;;;;;;;25.95;17.75;;;;;;;19.34;67.43;93104.44;4891413;29;20269;-93
2021/05/17 10:36:57;;;;;;;18.73;15.70;;;;;;;19.16;68.41;93092.66;4891644;29;20040;-89
2021/05/17 10:39:46;;;;;;;22.13;16.75;;;;;;;19.70;64.97;93091.56;4862356;29;20513;-91
2021/05/17 10:48:13;;;;;;;18.35;16.50;;;;;;;19.81;66.91;93120.06;4892744;29;20401;-94
2021/05/17 10:50:44;;;;;;;21.52;17.42;;;;;;;19.56;68.35;93110.13;4894231;29;20039;-90
2021/05/17 10:53:40;;;;;;;25.83;18.60;;;;;;;19.48;68.04;93097.75;4883826;29;20055;-86
2021/05/17 10:56:05;;;;;;;23.70;18.23;;;;;;;19.13;68.25;93053.19;4911836;29;20134;-87
2021/05/17 11:01:59;;;;;;;22.48;15.27;;;;;;;19.89;65.75;93094.91;4919944;28;20465;-93
2021/05/17 11:04:36;;;;;;;17.95;14.18;;;;;;;19.87;64.78;93107.13;4918402;29;20039;-91
2021/05/17 11:07:16;;;;;;;19.08;14.73;;;;;;;20.01;63.87;93118.03;4894737;29;20039;-86
2021/05/17 11:09:44;;;;;;;20.70;14.50;;;;;;;20.11;63.33;93122.00;4923319;29;20046;-91
2021/05/17 11:12:28;;;;;;;19.20;14.75;;;;;;;19.73;63.31;93125.72;4918488;29;20078;-87
2021/05/17 11:15:12;;;;;;;15.45;13.45;;;;;;;19.57;65.24;93106.31;4918265;29;20039;-90
2021/05/17 11:18:00;;;;;;;22.10;13.00;;;;;;;19.90;64.09;93127.84;4919567;29;20095;-91
2021/05/17 11:20:48;;;;;;;17.73;13.32;;;;;;;19.95;62.53;93124.84;4902631;29;20105;-92
2021/05/17 11:23:40;;;;;;;16.25;12.80;;;;;;;19.86;63.20;93114.41;4895867;29;20040;-90
2021/05/17 11:34:05;;;;;;;17.63;13.70;;;;;;;19.84;63.84;93126.63;4915227;29;20044;-81
2021/05/17 11:36:38;;;;;;;15.98;11.90;;;;;;;19.68;63.75;93110.72;4900110;29;20095;-80
2021/05/17 11:39:31;;;;;;;20.45;13.25;;;;;;;19.66;64.58;93123.69;4915693;29;20515;-81
2021/05/17 11:41:56;;;;;;;17.92;13.52;;;;;;;19.41;64.47;93125.97;4898838;29;20059;-81
2021/05/17 11:44:29;;;;;;;22.35;13.38;;;;;;;19.54;65.38;93121.22;4893049;29;20111;-81
2021/05/17 11:46:56;;;;;;;17.10;13.63;;;;;;;19.25;67.17;93128.03;4917577;29;20830;-81
2021/05/17 11:49:23;;;;;;;21.05;14.02;;;;;;;19.16;68.11;93106.03;4913995;29;22034;-81
2021/05/17 11:51:54;;;;;;;25.42;13.60;;;;;;;19.11;67.64;93119.72;4902485;29;20147;-80
2021/05/17 11:54:21;;;;;;;18.70;12.65;;;;;;;18.97;68.57;93108.78;4913518;29;20110;-80
2021/05/17 11:56:49;;;;;;;15.70;13.23;;;;;;;19.20;67.97;93111.47;4900226;29;20028;-80
2021/05/17 11:59:17;;;;;;;20.30;13.45;;;;;;;19.30;67.47;93116.97;4917400;29;20034;-81
2021/05/17 12:01:45;;;;;;;21.90;12.73;;;;;;;19.61;69.39;93101.78;4898921;29;20035;-80
2021/05/17 12:04:16;;;;;;;15.77;12.07;;;;;;;19.81;68.67;93119.31;4904730;29;20039;-81
2021/05/17 12:06:53;;;;;;;15.38;10.32;;;;;;;19.96;65.25;93113.00;4899449;29;20039;-80
2021/05/17 12:09:30;;;;;;;13.50;10.15;;;;;;;19.70;65.63;93102.28;4895672;29;20126;-81
2021/05/17 12:11:59;;;;;;;16.55;8.90;;;;;;;19.92;64.63;93122.13;4885706;29;20039;-81
2021/05/17 12:14:24;;;;;;;12.95;8.93;;;;;;;20.26;66.32;93123.72;4918462;29;20479;-80
2021/05/17 12:17:03;;;;;;;17.05;8.25;;;;;;;20.56;64.21;93126.41;4916084;29;20044;-81
2021/05/17 12:19:28;;;;;;;9.75;6.78;;;;;;;20.31;62.90;93110.81;4915839;29;20050;-81
2021/05/17 12:22:01;;;;;;;6.70;6.00;;;;;;;20.27;64.15;93101.91;4915126;29;20047;-81
2021/05/17 12:24:29;;;;;;;5.97;4.97;;;;;;;20.53;61.57;93106.44;4914627;29;20146;-81
2021/05/17 12:27:09;;;;;;;10.05;5.32;;;;;;;20.33;60.61;93094.31;4883061;29;20031;-88
2021/05/17 12:29:52;;;;;;;7.70;5.53;;;;;;;20.35;61.96;93084.00;4879316;29;20958;-86
2021/05/17 12:32:22;;;;;;;7.28;5.32;;;;;;;20.33;62.92;93080.16;4815104;29;20036;-88
2021/05/17 12:35:08;;;;;;;;;;;;;;;;;;;;;
2021/05/17 12:37:40;;;;;;;8.13;5.18;;;;;;;20.18;59.53;93074.56;4873257;29;20051;-88
2021/05/17 12:40:11;;;;;;;7.00;6.30;;;;;;;20.05;62.14;93097.41;4914506;29;20734;-87
2021/05/17 12:42:38;;;;;;;12.57;7.20;;;;;;;19.86;66.57;93086.81;4900727;28;20653;-87
2021/05/17 12:45:07;;;;;;;8.52;6.15;;;;;;;19.74;67.48;93071.72;4916603;29;20338;-88
2021/05/17 12:47:40;;;;;;;12.18;6.70;;;;;;;19.72;68.51;93062.50;4918948;29;20032;-85
2021/05/17 12:50:18;;;;;;;11.02;6.82;;;;;;;19.94;67.25;93080.41;4897769;29;20497;-88
2021/05/17 12:52:44;;;;;;;10.13;6.55;;;;;;;19.79;63.99;93058.00;4915036;28;20058;-87
2021/05/17 12:55:22;;;;;;;11.73;5.85;;;;;;;19.65;64.50;93078.47;4910583;29;20130;-88
2021/05/17 12:57:48;;;;;;;10.93;6.40;;;;;;;19.58;66.84;93083.75;4911856;29;20047;-87
2021/05/17 13:00:17;;;;;;;10.57;6.28;;;;;;;19.27;67.39;93058.78;4919905;29;20099;-87
2021/05/17 13:03:01;;;;;;;12.25;8.07;;;;;;;19.42;68.35;93084.66;4914967;28;20468;-86
2021/05/17 13:05:27;;;;;;;14.25;7.95;;;;;;;19.67;69.11;93109.16;4926201;29;20034;-87
2021/05/17 13:08:05;;;;;;;8.10;6.03;;;;;;;19.63;68.74;93088.81;4900254;29;21066;-87
2021/05/17 13:10:58;;;;;;;9.35;6.45;;;;;;;19.84;69.82;93111.31;4904275;29;20059;-85
2021/05/17 13:13:53;;;;;;;10.20;5.80;;;;;;;19.64;69.15;93093.03;4919634;29;20521;-89